Time;durP1;ratioP1;P1;durP2;ratioP2;P2;SDS_P1;SDS_P2;PMS_P1;PMS_P2;Temp;Humidity;BMP_temperature;BMP_pressure;BME280_temperature;BME280_humidity;BME280_pressure;Samples;Min_cycle;Max_cycle;Signal;HPM_P1;HPM_P2
2023/12/07 00:03:30;;;;;;;179.50;113.60;;;;;;;1.45;100.00;100366.07;178186;1255;46075;-84
2023/12/07 00:07:34;;;;;;;187.20;109.60;;;;;;;1.46;100.00;100367.78;178508;1257;46119;-84
2023/12/07 00:11:37;;;;;;;190.30;114.10;;;;;;;1.46;100.00;100369.90;177674;1256;58320;-84
2023/12/07 00:15:40;;;;;;;175.00;107.40;;;;;;;1.49;100.00;100369.75;178150;1254;46036;-83
2023/12/07 00:19:43;;;;;;;183.10;113.40;;;;;;;1.56;100.00;100369.10;178278;1254;46103;-83
2023/12/07 00:23:47;;;;;;;180.80;113.70;;;;;;;1.59;100.00;100369.88;178509;1254;46017;-83
2023/12/07 00:27:51;;;;;;;179.30;112.50;;;;;;;1.62;100.00;100369.19;178193;1256;46129;-83
2023/12/07 00:31:54;;;;;;;163.70;110.80;;;;;;;1.66;100.00;100375.31;177852;1256;58890;-82
2023/12/07 00:35:57;;;;;;;171.70;110.00;;;;;;;1.70;100.00;100373.42;177899;1258;46160;-83
2023/12/07 00:40:01;;;;;;;191.10;112.40;;;;;;;1.68;100.00;100377.16;178334;1254;44496;-81
2023/12/07 00:44:05;;;;;;;198.70;117.10;;;;;;;1.52;100.00;100378.18;178025;1254;46034;-83
2023/12/07 00:48:08;;;;;;;178.70;107.10;;;;;;;1.47;100.00;100379.81;178208;1253;45914;-83
2023/12/07 00:52:12;;;;;;;195.90;118.70;;;;;;;1.43;100.00;100381.20;177964;1254;59554;-83
2023/12/07 00:56:15;;;;;;;182.40;109.60;;;;;;;1.39;100.00;100385.73;177640;1256;44159;-84
2023/12/07 01:00:18;;;;;;;170.90;108.40;;;;;;;1.30;100.00;100384.52;177818;1254;46376;-84
2023/12/07 01:04:22;;;;;;;179.70;109.70;;;;;;;1.23;100.00;100384.61;177835;1254;46042;-83
2023/12/07 01:08:25;;;;;;;199.20;122.40;;;;;;;1.17;100.00;100387.84;178299;1256;46084;-84
2023/12/07 01:12:28;;;;;;;183.00;114.30;;;;;;;1.20;100.00;100396.30;178087;1256;58311;-82
2023/12/07 01:16:31;;;;;;;196.70;126.60;;;;;;;1.26;100.00;100403.05;178786;1255;46099;-84
2023/12/07 01:20:34;;;;;;;210.30;128.10;;;;;;;1.23;100.00;100408.23;179206;1254;45968;-84
2023/12/07 01:24:37;;;;;;;208.40;125.80;;;;;;;1.21;100.00;100408.66;178307;1254;45991;-84
2023/12/07 01:28:41;;;;;;;222.90;135.70;;;;;;;1.31;100.00;100417.87;178024;1256;46047;-84
2023/12/07 01:32:44;;;;;;;208.60;127.30;;;;;;;1.39;100.00;100419.78;178142;1254;59508;-83
2023/12/07 01:36:48;;;;;;;211.70;130.90;;;;;;;1.46;100.00;100422.66;178871;1255;45949;-84
2023/12/07 01:40:51;;;;;;;201.50;125.20;;;;;;;1.50;100.00;100423.70;178686;1254;45991;-84
2023/12/07 01:44:54;;;;;;;208.20;124.40;;;;;;;1.54;100.00;100428.63;178743;1254;46123;-84
2023/12/07 01:48:57;;;;;;;203.80;126.60;;;;;;;1.55;100.00;100424.38;178259;1255;46093;-84
2023/12/07 01:53:03;;;;;;;209.70;127.00;;;;;;;1.58;100.00;100422.89;178125;1258;58321;-84
2023/12/07 01:57:10;;;;;;;205.20;122.80;;;;;;;1.66;100.00;100426.40;178184;1255;46107;-83
2023/12/07 02:01:13;;;;;;;200.70;121.90;;;;;;;1.75;100.00;100424.77;178324;1256;45996;-84
2023/12/07 02:05:17;;;;;;;207.60;131.60;;;;;;;1.82;100.00;100425.17;178843;1258;45992;-83
2023/12/07 02:09:21;;;;;;;219.70;130.60;;;;;;;1.88;100.00;100424.94;178649;1255;46043;-84
2023/12/07 02:13:25;;;;;;;184.70;118.10;;;;;;;1.89;100.00;100436.61;178287;1254;59585;-84
2023/12/07 02:17:50;;;;;;;206.70;129.80;;;;;;;1.85;100.00;100436.93;178036;1255;45976;-85
2023/12/07 02:22:02;;;;;;;197.00;125.30;;;;;;;1.78;100.00;100437.78;178592;1256;46006;-83
2023/12/07 02:26:08;;;;;;;204.30;119.70;;;;;;;1.65;100.00;100439.36;178681;1254;45927;-84
2023/12/07 02:30:12;;;;;;;209.00;123.90;;;;;;;1.65;100.00;100443.93;179023;1254;46101;-84
2023/12/07 02:34:15;;;;;;;214.40;131.60;;;;;;;1.71;100.00;100442.45;178262;1258;57899;-84
2023/12/07 02:38:22;;;;;;;190.50;120.70;;;;;;;1.79;100.00;100443.33;178614;1256;45977;-84
2023/12/07 02:42:27;;;;;;;200.40;125.90;;;;;;;1.77;100.00;100443.94;179479;1256;46135;-83
2023/12/07 02:46:31;;;;;;;204.40;123.80;;;;;;;1.81;100.00;100446.02;179402;1254;46760;-84
2023/12/07 02:50:35;;;;;;;206.50;118.30;;;;;;;1.89;100.00;100448.15;178672;1256;46114;-84
2023/12/07 02:54:38;;;;;;;203.20;117.70;;;;;;;1.84;100.00;100447.31;178451;1256;59367;-83
2023/12/07 02:58:41;;;;;;;177.10;114.40;;;;;;;1.81;100.00;100455.11;178330;1254;46031;-83
2023/12/07 03:02:45;;;;;;;186.30;118.50;;;;;;;1.80;100.00;100463.56;178984;1258;46014;-82
2023/12/07 03:06:48;;;;;;;214.30;128.20;;;;;;;1.78;100.00;100468.37;181010;1257;43666;-81
2023/12/07 03:10:51;;;;;;;180.60;108.80;;;;;;;1.77;100.00;100468.59;179762;1254;46188;-85
2023/12/07 03:14:54;;;;;;;210.20;123.10;;;;;;;1.76;100.00;100472.46;178484;1254;59342;-84
2023/12/07 03:18:57;;;;;;;182.90;114.70;;;;;;;1.76;100.00;100474.23;178227;1258;51843;-82
2023/12/07 03:23:01;;;;;;;202.90;128.50;;;;;;;1.72;100.00;100480.86;178401;1258;46013;-83
2023/12/07 03:27:05;;;;;;;168.00;103.90;;;;;;;1.69;100.00;100486.23;178531;1254;45988;-83
2023/12/07 03:31:08;;;;;;;194.30;118.70;;;;;;;1.62;100.00;100488.27;178383;1258;46039;-84
2023/12/07 03:35:11;;;;;;;204.00;121.20;;;;;;;1.54;100.00;100492.09;177951;1258;60022;-84
2023/12/07 03:39:18;;;;;;;177.90;116.30;;;;;;;1.41;100.00;100489.99;178705;1258;46097;-83
2023/12/07 03:43:21;;;;;;;;;;;;;;;1.37;100.00;100495.23;177881;1262;46086;-85
2023/12/07 03:47:24;;;;;;;179.00;118.80;;;;;;;1.35;100.00;100497.21;178162;1257;46010;-84
2023/12/07 03:51:28;;;;;;;193.00;125.20;;;;;;;1.34;100.00;100499.69;178698;1259;46108;-83
2023/12/07 03:55:31;;;;;;;188.70;114.80;;;;;;;1.41;100.00;100500.12;178558;1255;59587;-83
2023/12/07 03:59:36;;;;;;;223.60;130.50;;;;;;;1.47;100.00;100497.25;178284;1258;45994;-84
2023/12/07 04:03:39;;;;;;;197.90;120.30;;;;;;;1.55;100.00;100501.98;178772;1254;46105;-85
2023/12/07 04:07:43;;;;;;;181.10;111.80;;;;;;;1.61;100.00;100505.80;178950;1254;46044;-85
2023/12/07 04:11:46;;;;;;;194.40;118.40;;;;;;;1.67;100.00;100509.90;178104;1257;46745;-85
2023/12/07 04:15:49;;;;;;;198.70;123.90;;;;;;;1.67;100.00;100514.64;178579;1254;57248;-82
2023/12/07 04:19:52;;;;;;;527.00;308.20;;;;;;;1.66;100.00;100514.31;178469;1254;46016;-82
2023/12/07 04:23:56;;;;;;;442.30;232.10;;;;;;;1.62;100.00;100514.29;179607;1254;44050;-82
2023/12/07 04:27:59;;;;;;;340.70;175.60;;;;;;;1.60;100.00;100516.33;180729;1254;44356;-82
2023/12/07 04:32:03;;;;;;;188.50;117.90;;;;;;;1.55;100.00;100516.88;180875;1254;44135;-82
2023/12/07 04:36:07;;;;;;;209.50;124.60;;;;;;;1.51;100.00;100518.77;180678;1254;57924;-82
2023/12/07 04:40:11;;;;;;;207.00;123.90;;;;;;;1.49;100.00;100519.39;179247;1254;46114;-82
2023/12/07 04:44:15;;;;;;;171.90;110.30;;;;;;;1.42;100.00;100521.77;178841;1257;46198;-82
2023/12/07 04:48:18;;;;;;;202.00;116.00;;;;;;;1.34;100.00;100529.42;178666;1254;46790;-82
2023/12/07 04:52:21;;;;;;;202.90;114.20;;;;;;;1.22;100.00;100537.38;178247;1254;46094;-82
2023/12/07 04:56:25;;;;;;;171.30;110.10;;;;;;;1.27;100.00;100543.31;178202;1257;59521;-82
2023/12/07 05:00:28;;;;;;;185.10;111.40;;;;;;;1.38;100.00;100546.21;179233;1257;44161;-82
2023/12/07 05:04:33;;;;;;;179.60;110.30;;;;;;;1.42;100.00;100546.22;178978;1253;46154;-83
2023/12/07 05:08:36;;;;;;;178.10;112.20;;;;;;;1.37;100.00;100553.40;178141;1254;46010;-83
2023/12/07 05:12:39;;;;;;;197.40;114.90;;;;;;;1.47;100.00;100549.70;178161;1260;45995;-81
2023/12/07 05:16:43;;;;;;;180.00;111.80;;;;;;;1.57;100.00;100558.20;178893;1254;58846;-83
2023/12/07 05:20:46;;;;;;;171.60;106.30;;;;;;;1.65;100.00;100565.61;178549;1257;46433;-82
2023/12/07 05:24:50;;;;;;;204.90;109.70;;;;;;;1.52;100.00;100569.27;178669;1257;46026;-83
2023/12/07 05:28:53;;;;;;;205.90;122.40;;;;;;;1.36;100.00;100569.70;178767;1254;45936;-82
2023/12/07 05:32:57;;;;;;;200.10;123.90;;;;;;;1.27;100.00;100575.10;178472;1254;45981;-82
2023/12/07 05:37:00;;;;;;;175.90;111.70;;;;;;;1.23;100.00;100573.69;178325;1254;58521;-83
2023/12/07 05:41:03;;;;;;;190.40;109.20;;;;;;;1.21;100.00;100575.14;178496;1254;45991;-83
2023/12/07 05:45:07;;;;;;;160.60;102.20;;;;;;;1.18;100.00;100577.54;178085;1257;46001;-83
2023/12/07 05:49:10;;;;;;;150.50;93.70;;;;;;;1.17;100.00;100575.48;178686;1254;44166;-83
2023/12/07 05:53:13;;;;;;;183.70;107.10;;;;;;;1.21;100.00;100579.02;178178;1257;46178;-83
2023/12/07 05:57:17;;;;;;;141.00;94.20;;;;;;;1.21;100.00;100586.50;178084;1254;58613;-83
2023/12/07 06:01:20;;;;;;;160.00;92.30;;;;;;;1.24;100.00;100587.96;178518;1254;46047;-82
2023/12/07 06:05:23;;;;;;;151.40;93.40;;;;;;;1.28;100.00;100589.74;179871;1254;45993;-82
2023/12/07 06:09:26;;;;;;;151.90;94.20;;;;;;;1.32;100.00;100596.25;179392;1257;46168;-83
2023/12/07 06:13:30;;;;;;;142.40;86.00;;;;;;;1.37;100.00;100600.60;178341;1257;45981;-83
2023/12/07 06:17:33;;;;;;;141.20;89.90;;;;;;;1.34;100.00;100602.78;177926;1254;59133;-83
2023/12/07 06:21:37;;;;;;;140.40;85.50;;;;;;;1.39;100.00;100608.55;178452;1255;46139;-83
2023/12/07 06:25:40;;;;;;;153.60;87.30;;;;;;;1.45;100.00;100614.45;178849;1254;46056;-84
2023/12/07 06:29:43;;;;;;;129.50;77.90;;;;;;;1.51;100.00;100613.00;179147;1253;46515;-83
2023/12/07 06:33:46;;;;;;;115.80;73.20;;;;;;;1.54;100.00;100614.77;178937;1254;45953;-83
2023/12/07 06:37:50;;;;;;;129.60;75.10;;;;;;;1.60;100.00;100618.63;181250;1254;58192;-82
2023/12/07 06:41:55;;;;;;;115.30;72.10;;;;;;;1.64;100.00;100622.97;180109;1254;46194;-83
2023/12/07 06:45:58;;;;;;;113.50;73.50;;;;;;;1.71;100.00;100632.31;178619;1254;46003;-83
2023/12/07 06:50:02;;;;;;;111.40;68.70;;;;;;;1.76;100.00;100630.21;178010;1254;46133;-82
2023/12/07 06:54:08;;;;;;;99.30;60.60;;;;;;;1.83;100.00;100630.27;178122;1254;45988;-83
2023/12/07 06:58:11;;;;;;;87.60;55.20;;;;;;;1.96;100.00;100631.00;178312;1253;58290;-83
2023/12/07 07:02:15;;;;;;;80.30;48.20;;;;;;;1.99;100.00;100635.05;177836;1253;45973;-83
2023/12/07 07:06:18;;;;;;;83.30;48.00;;;;;;;1.86;100.00;100642.06;178261;1254;45996;-84
2023/12/07 07:10:21;;;;;;;87.40;48.20;;;;;;;1.72;100.00;100641.38;177846;1254;46221;-83
2023/12/07 07:14:24;;;;;;;68.00;40.30;;;;;;;1.64;100.00;100638.01;178789;1253;45898;-83
2023/12/07 07:18:28;;;;;;;71.80;45.10;;;;;;;1.61;100.00;100643.41;178699;1254;59545;-83
2023/12/07 07:22:32;;;;;;;69.30;36.80;;;;;;;1.59;100.00;100648.35;178483;1254;46117;-83
2023/12/07 07:26:35;;;;;;;61.60;38.30;;;;;;;1.57;100.00;100652.97;178107;1254;45981;-82
2023/12/07 07:30:38;;;;;;;59.50;38.20;;;;;;;1.56;100.00;100660.17;178866;1254;45225;-82
2023/12/07 07:34:41;;;;;;;73.40;49.20;;;;;;;1.62;100.00;100662.57;178134;1257;46249;-83
2023/12/07 07:38:45;;;;;;;276.00;132.40;;;;;;;1.70;100.00;100661.20;178749;1254;58221;-83
2023/12/07 07:42:48;;;;;;;187.90;94.00;;;;;;;1.80;100.00;100665.02;178631;1254;46109;-82
2023/12/07 07:46:51;;;;;;;220.70;112.10;;;;;;;1.87;100.00;100672.79;178055;1256;46096;-83
2023/12/07 07:50:54;;;;;;;183.10;97.60;;;;;;;1.89;100.00;100677.98;178561;1254;45971;-81
2023/12/07 07:54:57;;;;;;;83.70;49.20;;;;;;;1.97;100.00;100672.42;178761;1256;46006;-82
2023/12/07 07:59:01;;;;;;;60.80;36.20;;;;;;;2.04;100.00;100675.96;178075;1254;57947;-82
2023/12/07 08:03:04;;;;;;;47.40;30.80;;;;;;;2.18;100.00;100672.79;178784;1254;46118;-83
2023/12/07 08:07:11;;;;;;;54.60;32.40;;;;;;;2.27;100.00;100670.67;178037;1254;45988;-82
2023/12/07 08:11:15;;;;;;;41.10;25.60;;;;;;;2.36;100.00;100667.84;178529;1257;45993;-82
2023/12/07 08:15:18;;;;;;;41.20;28.70;;;;;;;2.47;100.00;100660.25;178361;1254;45963;-82
2023/12/07 08:19:21;;;;;;;42.60;29.30;;;;;;;2.59;100.00;100666.21;178435;1255;58230;-82
2023/12/07 08:23:25;;;;;;;44.20;26.20;;;;;;;2.63;100.00;100668.31;178244;1254;45927;-82
2023/12/07 08:27:28;;;;;;;42.80;27.40;;;;;;;2.74;100.00;100673.11;178171;1256;46162;-79
2023/12/07 08:31:31;;;;;;;42.40;24.80;;;;;;;2.78;100.00;100674.85;178775;1254;46189;-80
2023/12/07 08:35:34;;;;;;;36.00;22.80;;;;;;;2.77;100.00;100677.22;178730;1254;45973;-81
2023/12/07 08:39:37;;;;;;;38.80;27.40;;;;;;;2.72;100.00;100676.01;179279;1254;58064;-80
2023/12/07 08:43:41;;;;;;;63.10;35.70;;;;;;;2.75;100.00;100674.50;179049;1254;46021;-82
2023/12/07 08:47:44;;;;;;;50.00;25.30;;;;;;;2.81;100.00;100675.45;178461;1254;45994;-81
2023/12/07 08:51:47;;;;;;;63.90;35.10;;;;;;;2.88;100.00;100679.51;178762;1253;45984;-82
2023/12/07 08:56:12;;;;;;;63.20;34.70;;;;;;;3.09;100.00;100687.37;178172;1254;217274;-81
2023/12/07 09:00:16;;;;;;;34.50;22.90;;;;;;;3.22;100.00;100691.20;178453;1254;58194;-82
2023/12/07 09:04:19;;;;;;;35.90;24.30;;;;;;;3.31;100.00;100692.70;178109;1254;45965;-81
2023/12/07 09:08:23;;;;;;;42.30;28.40;;;;;;;3.37;100.00;100694.55;178704;1254;46020;-82
2023/12/07 09:12:26;;;;;;;40.20;28.10;;;;;;;3.47;100.00;100697.25;179096;1254;46115;-81
2023/12/07 09:16:46;;;;;;;33.70;25.20;;;;;;;3.54;100.00;100702.21;178040;1254;46046;-80
2023/12/07 09:20:50;;;;;;;33.20;23.00;;;;;;;3.66;100.00;100700.27;178666;1254;57929;-81
2023/12/07 09:24:53;;;;;;;41.90;28.20;;;;;;;3.73;100.00;100700.48;178267;1255;46562;-82
2023/12/07 09:28:56;;;;;;;35.60;24.00;;;;;;;3.80;100.00;100700.48;178174;1255;46262;-81
2023/12/07 09:33:04;;;;;;;36.00;22.10;;;;;;;3.83;100.00;100696.48;178637;1254;46061;-81
2023/12/07 09:37:08;;;;;;;35.00;26.40;;;;;;;3.85;100.00;100700.43;178580;1255;46117;-79
2023/12/07 09:41:11;;;;;;;40.60;25.70;;;;;;;3.78;100.00;100700.76;178554;1254;59316;-82
2023/12/07 09:45:18;;;;;;;39.60;27.70;;;;;;;3.71;100.00;100698.27;178213;1254;46018;-81
2023/12/07 09:49:21;;;;;;;42.00;30.60;;;;;;;3.64;100.00;100699.14;178466;1255;44176;-81
2023/12/07 09:53:26;;;;;;;40.30;29.40;;;;;;;3.62;100.00;100697.66;178336;1254;46002;-81
2023/12/07 09:57:29;;;;;;;35.60;26.40;;;;;;;3.68;100.00;100699.99;178547;1254;46581;-81
2023/12/07 10:01:35;;;;;;;44.90;32.70;;;;;;;3.77;100.00;100701.33;177891;1254;58056;-82
2023/12/07 10:06:04;;;;;;;46.90;32.30;;;;;;;3.86;100.00;100697.42;181321;1254;45915;-80
2023/12/07 10:10:09;;;;;;;45.10;30.50;;;;;;;3.91;100.00;100697.88;181192;1254;46033;-81
2023/12/07 10:14:14;;;;;;;;;;;;;;;3.88;100.00;100694.68;179628;1254;46129;-82
2023/12/07 10:18:23;;;;;;;43.20;30.40;;;;;;;3.77;100.00;100692.73;178300;1254;45481;-82
2023/12/07 10:22:26;;;;;;;39.90;28.40;;;;;;;3.68;100.00;100690.15;178703;1255;57892;-82
2023/12/07 10:26:30;;;;;;;46.50;28.90;;;;;;;3.83;100.00;100689.47;178382;1254;45866;-81
2023/12/07 10:30:35;;;;;;;44.00;32.80;;;;;;;3.99;100.00;100687.86;178330;1254;46721;-82
2023/12/07 10:34:38;;;;;;;43.50;29.50;;;;;;;4.08;100.00;100684.27;178202;1254;46169;-82
2023/12/07 10:38:42;;;;;;;46.60;29.80;;;;;;;4.20;100.00;100682.83;178015;1254;46004;-83
2023/12/07 10:42:47;;;;;;;45.30;31.40;;;;;;;4.30;100.00;100680.92;178028;1255;58236;-82
2023/12/07 10:46:51;;;;;;;48.40;31.00;;;;;;;4.34;100.00;100683.38;178891;1254;45990;-82
2023/12/07 10:50:57;;;;;;;44.60;27.70;;;;;;;4.37;100.00;100684.09;178433;1254;46456;-82
2023/12/07 10:55:07;;;;;;;40.80;25.50;;;;;;;4.36;100.00;100688.16;178406;1257;46175;-82
2023/12/07 10:59:12;;;;;;;47.30;29.90;;;;;;;4.36;100.00;100688.89;178799;1255;46108;-81
2023/12/07 11:03:32;;;;;;;39.00;26.40;;;;;;;4.31;100.00;100686.84;178784;1254;57914;-82
2023/12/07 11:07:54;;;;;;;32.20;21.70;;;;;;;4.32;100.00;100681.73;178676;1255;45982;-82
2023/12/07 11:12:05;;;;;;;37.20;27.90;;;;;;;4.29;100.00;100682.89;178570;1253;46001;-82
2023/12/07 11:16:09;;;;;;;43.60;31.30;;;;;;;4.02;100.00;100687.35;178368;1254;46019;-82
2023/12/07 11:20:19;;;;;;;47.70;32.70;;;;;;;3.85;100.00;100685.51;178388;1254;44264;-82
2023/12/07 11:24:23;;;;;;;44.10;30.20;;;;;;;3.84;100.00;100685.93;178237;1256;57955;-82
2023/12/07 11:28:38;;;;;;;43.80;29.40;;;;;;;3.90;100.00;100688.27;178466;1254;46015;-82
2023/12/07 11:32:43;;;;;;;40.20;29.70;;;;;;;4.01;100.00;100686.51;178171;1253;44053;-82
2023/12/07 11:36:46;;;;;;;44.70;29.50;;;;;;;4.05;100.00;100684.60;178418;1255;46115;-81
2023/12/07 11:40:50;;;;;;;44.90;31.60;;;;;;;4.00;100.00;100683.95;177992;1255;46147;-82
2023/12/07 11:44:53;;;;;;;56.60;38.90;;;;;;;3.84;100.00;100684.00;178601;1254;56945;-82
2023/12/07 11:48:58;;;;;;;33.00;27.20;;;;;;;3.72;100.00;100678.20;178597;1254;46121;-81
2023/12/07 11:53:02;;;;;;;48.20;29.20;;;;;;;3.78;100.00;100669.71;178532;1254;46112;-81
2023/12/07 11:57:05;;;;;;;50.20;29.10;;;;;;;3.87;100.00;100666.64;178240;1254;46095;-81
2023/12/07 12:01:09;;;;;;;47.60;32.90;;;;;;;3.92;100.00;100665.02;178335;1254;46080;-82
2023/12/07 12:05:13;;;;;;;40.80;29.80;;;;;;;4.03;100.00;100657.48;178704;1254;57885;-82
2023/12/07 12:09:17;;;;;;;35.60;27.70;;;;;;;4.09;100.00;100654.89;178161;1254;46107;-81
2023/12/07 12:13:34;;;;;;;36.40;26.60;;;;;;;4.14;100.00;100662.20;177872;1254;45989;-81
2023/12/07 12:17:37;;;;;;;39.30;26.90;;;;;;;4.14;100.00;100664.33;178402;1254;46092;-81
2023/12/07 12:21:43;;;;;;;42.70;27.10;;;;;;;4.15;100.00;100663.74;178851;1254;46141;-80
2023/12/07 12:25:48;;;;;;;37.80;27.70;;;;;;;4.13;100.00;100666.27;178424;1254;58468;-82
2023/12/07 12:29:52;;;;;;;34.90;26.50;;;;;;;4.14;100.00;100664.30;178364;1254;46148;-82
2023/12/07 12:33:55;;;;;;;37.00;27.70;;;;;;;4.23;100.00;100662.98;178126;1255;46037;-82
2023/12/07 12:38:01;;;;;;;40.30;28.50;;;;;;;4.33;100.00;100664.64;177994;1254;44463;-81
2023/12/07 12:42:05;;;;;;;46.30;30.00;;;;;;;4.38;100.00;100664.38;178793;1254;45307;-81
2023/12/07 12:46:10;;;;;;;37.40;26.40;;;;;;;4.43;100.00;100664.67;178950;1255;59363;-82
2023/12/07 12:50:40;;;;;;;37.00;28.00;;;;;;;4.52;100.00;100664.41;178615;1254;44657;-82
2023/12/07 12:54:44;;;;;;;36.00;24.70;;;;;;;4.61;100.00;100667.09;178066;1256;46071;-82
2023/12/07 12:58:51;;;;;;;35.50;27.90;;;;;;;4.66;100.00;100663.50;178858;1254;45918;-82
2023/12/07 13:02:55;;;;;;;34.60;27.60;;;;;;;4.73;100.00;100662.48;178425;1254;44515;-81
2023/12/07 13:06:58;;;;;;;43.90;33.50;;;;;;;4.78;100.00;100661.83;179136;1254;58025;-81
2023/12/07 13:11:01;;;;;;;36.80;28.00;;;;;;;4.78;100.00;100670.11;178186;1254;46186;-81
2023/12/07 13:15:05;;;;;;;39.80;29.90;;;;;;;4.76;100.00;100666.02;178736;1254;45966;-81
2023/12/07 13:19:08;;;;;;;43.00;26.20;;;;;;;4.73;100.00;100667.40;178932;1254;45988;-81
2023/12/07 13:23:11;;;;;;;37.90;26.40;;;;;;;4.66;100.00;100668.77;178592;1254;46029;-81
2023/12/07 13:27:15;;;;;;;33.40;21.70;;;;;;;4.56;100.00;100667.17;178400;1254;58711;-81
2023/12/07 13:31:18;;;;;;;37.40;26.20;;;;;;;4.42;100.00;100670.68;178303;1254;46082;-81
2023/12/07 13:35:22;;;;;;;34.60;25.40;;;;;;;4.42;100.00;100672.95;178041;1254;46114;-81
2023/12/07 13:39:27;;;;;;;41.00;27.90;;;;;;;4.49;100.00;100671.89;180113;1254;45969;-81
2023/12/07 13:43:34;;;;;;;39.60;28.10;;;;;;;4.56;100.00;100671.06;180999;1254;45998;-81
2023/12/07 13:47:37;;;;;;;45.50;27.60;;;;;;;4.55;100.00;100671.98;179438;1254;58207;-82
2023/12/07 13:51:41;;;;;;;39.00;27.60;;;;;;;4.47;100.00;100681.33;178800;1255;46114;-82
2023/12/07 13:55:45;;;;;;;42.40;28.40;;;;;;;4.43;100.00;100676.76;178850;1254;46111;-82
2023/12/07 13:59:50;;;;;;;38.90;29.20;;;;;;;4.36;100.00;100678.70;179070;1254;46078;-81
2023/12/07 14:03:53;;;;;;;46.30;31.00;;;;;;;4.29;100.00;100679.91;179242;1254;45956;-82
2023/12/07 14:07:57;;;;;;;46.80;31.50;;;;;;;4.23;100.00;100681.08;179662;1256;57909;-82
2023/12/07 14:12:00;;;;;;;42.20;26.60;;;;;;;4.17;100.00;100688.23;179599;1254;45742;-82
2023/12/07 14:16:04;;;;;;;40.90;28.70;;;;;;;4.10;100.00;100692.41;180094;1254;45952;-82
2023/12/07 14:20:23;;;;;;;40.70;27.10;;;;;;;4.07;100.00;100699.05;178659;1254;45894;-82
2023/12/07 14:24:47;;;;;;;35.30;27.20;;;;;;;3.95;100.00;100706.44;178973;1254;45940;-81
2023/12/07 14:28:51;;;;;;;40.30;28.20;;;;;;;3.84;100.00;100708.90;179140;1255;60630;-82
2023/12/07 14:32:54;;;;;;;43.20;32.50;;;;;;;3.81;100.00;100714.64;178243;1254;46081;-82
2023/12/07 14:36:58;;;;;;;48.00;31.60;;;;;;;3.78;100.00;100714.46;178886;1256;44613;-81
2023/12/07 14:41:01;;;;;;;41.90;30.60;;;;;;;3.82;100.00;100710.38;178204;1254;46127;-82
2023/12/07 14:45:05;;;;;;;41.10;29.00;;;;;;;3.83;100.00;100710.72;179749;1254;44621;-81
2023/12/07 14:49:08;;;;;;;50.30;29.90;;;;;;;3.80;100.00;100711.91;179910;1254;61721;-82
2023/12/07 14:53:12;;;;;;;49.80;32.70;;;;;;;3.80;100.00;100710.48;179874;1254;46105;-82
2023/12/07 14:57:15;;;;;;;45.90;32.00;;;;;;;3.81;100.00;100709.77;180094;1254;45993;-82
2023/12/07 15:01:18;;;;;;;49.70;29.40;;;;;;;3.72;100.00;100706.63;179952;1254;46117;-82
2023/12/07 15:05:24;;;;;;;42.30;31.10;;;;;;;3.57;100.00;100708.05;179408;1256;46043;-82
2023/12/07 15:09:28;;;;;;;55.30;38.30;;;;;;;3.47;100.00;100711.48;178139;1255;60244;-81
2023/12/07 15:13:31;;;;;;;58.00;38.10;;;;;;;3.44;100.00;100712.33;179574;1256;46096;-81
2023/12/07 15:17:34;;;;;;;47.80;35.10;;;;;;;3.46;100.00;100704.34;179770;1254;46013;-81
2023/12/07 15:21:38;;;;;;;53.90;33.00;;;;;;;3.47;100.00;100707.97;179438;1254;45987;-80
2023/12/07 15:25:41;;;;;;;49.80;35.50;;;;;;;3.38;100.00;100714.35;181216;1254;44166;-80
2023/12/07 15:29:44;;;;;;;47.20;35.50;;;;;;;3.34;100.00;100711.86;180941;1254;59765;-81
2023/12/07 15:33:48;;;;;;;74.00;45.50;;;;;;;3.43;100.00;100711.98;179003;1254;45911;-80
2023/12/07 15:37:51;;;;;;;68.50;46.20;;;;;;;3.37;100.00;100715.41;179608;1254;44306;-81
2023/12/07 15:41:54;;;;;;;69.90;45.30;;;;;;;3.20;100.00;100715.66;178333;1254;46008;-80
2023/12/07 15:46:00;;;;;;;63.40;44.10;;;;;;;3.10;100.00;100708.03;178649;1254;44395;-81
2023/12/07 15:50:03;;;;;;;71.60;46.40;;;;;;;3.01;100.00;100711.57;178647;1255;57609;-80
2023/12/07 15:54:06;;;;;;;62.40;41.90;;;;;;;2.87;100.00;100717.95;178284;1257;46106;-81
2023/12/07 15:58:11;;;;;;;72.90;46.70;;;;;;;2.84;100.00;100717.20;177783;1254;46101;-80
2023/12/07 16:02:16;;;;;;;79.80;50.30;;;;;;;2.93;100.00;100717.68;177410;1254;45985;-81
2023/12/07 16:06:19;;;;;;;74.60;50.70;;;;;;;2.98;100.00;100714.15;178088;1258;46117;-80
2023/12/07 16:10:22;;;;;;;102.60;72.00;;;;;;;2.96;100.00;100714.76;177963;1254;59265;-81
2023/12/07 16:14:25;;;;;;;75.20;49.60;;;;;;;2.94;100.00;100714.11;179314;1254;45943;-80
2023/12/07 16:18:33;;;;;;;81.10;52.20;;;;;;;2.86;100.00;100714.98;178041;1255;46107;-80
2023/12/07 16:22:37;;;;;;;58.90;38.70;;;;;;;2.80;100.00;100713.31;178653;1255;46107;-81
2023/12/07 16:26:40;;;;;;;97.90;59.60;;;;;;;2.76;100.00;100713.83;180383;1254;45998;-80
2023/12/07 16:30:43;;;;;;;123.00;74.70;;;;;;;2.80;100.00;100717.70;178722;1257;58254;-80
2023/12/07 16:34:51;;;;;;;95.80;61.00;;;;;;;2.88;100.00;100716.83;178495;1254;46029;-79
2023/12/07 16:38:54;;;;;;;120.10;69.40;;;;;;;2.81;100.00;100719.05;179639;1254;46029;-80
2023/12/07 16:42:58;;;;;;;100.10;65.60;;;;;;;2.82;100.00;100721.30;179487;1256;46100;-80
2023/12/07 16:47:01;;;;;;;84.30;52.80;;;;;;;2.74;100.00;100721.11;179176;1254;46012;-80
2023/12/07 16:51:04;;;;;;;166.50;101.70;;;;;;;2.63;100.00;100716.48;178446;1255;59547;-81
2023/12/07 16:55:07;;;;;;;178.60;110.20;;;;;;;2.54;100.00;100716.50;178525;1254;46019;-80
2023/12/07 16:59:11;;;;;;;110.60;76.60;;;;;;;2.51;100.00;100716.61;178512;1257;46114;-80
2023/12/07 17:03:14;;;;;;;113.90;70.30;;;;;;;2.57;100.00;100718.30;178468;1254;46095;-80
2023/12/07 17:07:17;;;;;;;112.50;65.70;;;;;;;2.60;100.00;100718.17;179614;1255;46113;-80
2023/12/07 17:11:20;;;;;;;115.00;75.10;;;;;;;2.55;100.00;100716.13;180897;1254;59247;-80
2023/12/07 17:15:23;;;;;;;125.10;78.90;;;;;;;2.49;100.00;100715.65;180063;1254;46151;-80
2023/12/07 17:19:26;;;;;;;92.50;59.60;;;;;;;2.48;100.00;100707.67;179552;1258;46089;-80
2023/12/07 17:23:38;;;;;;;102.80;58.20;;;;;;;2.43;100.00;100708.52;178981;1256;46208;-80
2023/12/07 17:27:41;;;;;;;321.20;160.80;;;;;;;2.39;100.00;100709.06;179098;1256;46264;-80
2023/12/07 17:31:45;;;;;;;888.90;480.50;;;;;;;2.27;100.00;100715.84;179161;1258;59216;-80
2023/12/07 17:35:48;;;;;;;496.10;232.30;;;;;;;2.20;100.00;100726.82;178692;1256;45995;-81
2023/12/07 17:39:57;;;;;;;155.80;82.60;;;;;;;2.22;100.00;100722.00;177936;1255;46133;-80
2023/12/07 17:44:00;;;;;;;115.60;61.10;;;;;;;2.21;100.00;100713.63;178455;1256;45937;-80
2023/12/07 17:48:05;;;;;;;82.70;50.60;;;;;;;2.19;100.00;100712.16;179862;1256;44838;-81
2023/12/07 17:52:09;;;;;;;76.30;51.60;;;;;;;2.29;100.00;100713.14;178750;1254;59222;-81
2023/12/07 17:56:12;;;;;;;81.40;49.40;;;;;;;2.33;100.00;100719.79;177110;1255;46045;-80
2023/12/07 18:00:15;;;;;;;76.90;47.80;;;;;;;2.30;100.00;100721.86;178336;1254;46107;-80
2023/12/07 18:04:18;;;;;;;88.60;57.40;;;;;;;2.29;100.00;100715.60;178946;1255;46124;-80
2023/12/07 18:08:21;;;;;;;97.40;58.50;;;;;;;2.31;100.00;100716.54;177658;1255;45986;-80
2023/12/07 18:12:25;;;;;;;108.70;66.50;;;;;;;2.33;100.00;100722.06;177283;1253;59612;-80